Time;durP1;ratioP1;P1;durP2;ratioP2;P2;SDS_P1;SDS_P2;PMS_P1;PMS_P2;Temp;Humidity;BMP_temperature;BMP_pressure;BME280_temperature;BME280_humidity;BME280_pressure;Samples;Min_cycle;Max_cycle;Signal;HPM_P1;HPM_P2
2023/02/08 00:00:14;;;;;;;21.25;10.25;;;;;;;-4.03;97.52;101482.84;5039385;28;20376;-59
2023/02/08 00:02:40;;;;;;;22.58;11.82;;;;;;;-4.11;89.33;101483.31;5038073;28;20482;-59
2023/02/08 00:05:05;;;;;;;23.38;11.25;;;;;;;-4.13;88.09;101478.16;5040649;28;20383;-59
2023/02/08 00:07:31;;;;;;;17.00;9.25;;;;;;;-4.34;88.00;101492.53;5036939;28;20029;-59
2023/02/08 00:09:56;;;;;;;18.10;10.07;;;;;;;-4.07;86.92;101489.19;5042629;28;20042;-59
2023/02/08 00:12:24;;;;;;;22.30;10.45;;;;;;;-4.26;87.48;101484.22;5041739;28;20040;-59
2023/02/08 00:14:50;;;;;;;17.55;10.80;;;;;;;-4.43;88.19;101480.00;5038479;28;20148;-59
2023/02/08 00:17:15;;;;;;;21.77;9.38;;;;;;;-4.62;89.33;101483.69;5039926;28;20037;-59
2023/02/08 00:19:41;;;;;;;23.15;10.00;;;;;;;-4.56;90.08;101480.72;5040613;28;20032;-59
2023/02/08 00:22:06;;;;;;;15.25;9.52;;;;;;;-4.54;92.43;101491.09;5042669;28;20510;-59
2023/02/08 00:24:32;;;;;;;24.63;10.13;;;;;;;-4.58;92.36;101490.41;5036478;28;20022;-59
2023/02/08 00:26:57;;;;;;;21.98;10.10;;;;;;;-4.46;93.67;101486.25;5045945;28;20029;-59
2023/02/08 00:29:22;;;;;;;19.17;10.45;;;;;;;-4.69;92.17;101492.84;5045257;28;20090;-59
2023/02/08 00:31:48;;;;;;;17.52;10.02;;;;;;;-4.84;92.44;101483.22;5038879;28;20079;-59
2023/02/08 00:34:13;;;;;;;22.27;10.95;;;;;;;-4.96;92.42;101486.56;5036778;28;20091;-59
2023/02/08 00:36:39;;;;;;;28.85;10.48;;;;;;;-5.05;94.42;101475.66;5037113;28;20029;-58
2023/02/08 00:39:04;;;;;;;20.15;11.02;;;;;;;-5.29;93.15;101469.19;5035622;28;20030;-60
2023/02/08 00:41:30;;;;;;;18.88;10.15;;;;;;;-5.38;94.33;101469.72;5031622;28;20426;-59
2023/02/08 00:43:55;;;;;;;20.83;10.50;;;;;;;-5.42;95.02;101469.91;5025999;28;20660;-59
2023/02/08 00:46:21;;;;;;;17.27;10.20;;;;;;;-5.46;94.99;101472.78;5047913;28;20036;-58
2023/02/08 00:48:46;;;;;;;17.30;9.85;;;;;;;-5.30;94.49;101473.59;5026010;28;20029;-59
2023/02/08 00:51:12;;;;;;;20.42;10.20;;;;;;;-5.25;93.99;101468.94;5043306;28;20080;-59
2023/02/08 00:53:39;;;;;;;18.25;10.30;;;;;;;-5.11;96.33;101468.19;5034531;28;20380;-58
2023/02/08 00:56:06;;;;;;;17.70;9.77;;;;;;;-5.15;93.82;101465.81;5042757;28;20024;-59
2023/02/08 00:58:31;;;;;;;18.38;9.85;;;;;;;-4.96;96.28;101463.84;5036262;28;20043;-59
2023/02/08 01:00:56;;;;;;;19.63;10.15;;;;;;;-5.00;96.37;101462.34;5038335;28;20029;-59
2023/02/08 01:03:22;;;;;;;19.08;9.52;;;;;;;-5.02;96.80;101462.44;5048741;28;20035;-59
2023/02/08 01:05:47;;;;;;;22.35;11.90;;;;;;;-4.73;100.00;101462.53;5040346;28;20122;-59
2023/02/08 01:08:13;;;;;;;60.70;26.27;;;;;;;-4.95;97.85;101465.53;5047102;28;20034;-59
2023/02/08 01:10:38;;;;;;;29.55;14.32;;;;;;;-5.24;95.35;101464.59;5044349;28;20171;-59
2023/02/08 01:13:04;;;;;;;24.25;11.98;;;;;;;-5.22;97.58;101468.81;5037682;28;20391;-59
2023/02/08 01:15:29;;;;;;;29.13;12.50;;;;;;;-5.33;97.25;101465.94;5032004;28;20044;-59
2023/02/08 01:17:55;;;;;;;22.00;10.82;;;;;;;-5.48;96.46;101466.78;5039890;28;20017;-59
2023/02/08 01:20:20;;;;;;;25.90;11.05;;;;;;;-5.12;100.00;101466.47;5043183;28;20028;-59
2023/02/08 01:22:46;;;;;;;31.50;14.38;;;;;;;-5.46;97.79;101472.78;5036187;28;20040;-59
2023/02/08 01:25:11;;;;;;;31.48;14.23;;;;;;;-5.40;97.57;101464.56;5048615;28;20044;-59
2023/02/08 01:27:37;;;;;;;33.80;15.30;;;;;;;-5.07;100.00;101466.22;5037391;28;20056;-59
2023/02/08 01:30:03;;;;;;;35.10;17.10;;;;;;;-4.95;100.00;101467.31;5042371;28;20490;-59
2023/02/08 01:32:28;;;;;;;31.63;14.15;;;;;;;-5.08;97.44;101459.31;5040563;28;20029;-59
2023/02/08 01:34:54;;;;;;;23.17;12.48;;;;;;;-4.71;100.00;101452.81;5031670;28;20033;-59
2023/02/08 01:37:19;;;;;;;17.73;10.68;;;;;;;-4.56;100.00;101456.31;5037362;28;20028;-59
2023/02/08 01:39:45;;;;;;;19.05;10.25;;;;;;;-5.11;96.27;101455.13;5035217;28;20029;-59
2023/02/08 01:42:14;;;;;;;16.98;9.43;;;;;;;-5.00;99.32;101463.19;5041458;28;20033;-59
2023/02/08 01:45:19;;;;;;;21.45;11.15;;;;;;;-5.01;96.03;101458.88;5040116;28;20087;-59
2023/02/08 01:47:47;;;;;;;16.60;9.38;;;;;;;-4.99;98.45;101451.81;5040883;28;20662;-59
2023/02/08 01:50:13;;;;;;;19.13;10.38;;;;;;;-5.12;96.40;101452.56;5038844;28;20079;-59
2023/02/08 01:52:38;;;;;;;18.10;9.77;;;;;;;-5.31;97.37;101455.41;5047990;28;20024;-59
2023/02/08 01:55:08;;;;;;;16.83;9.20;;;;;;;-5.06;97.74;101453.06;5032465;28;20041;-59
2023/02/08 01:57:34;;;;;;;20.35;9.45;;;;;;;-5.20;95.73;101450.41;5038367;28;20424;-59
2023/02/08 02:00:32;;;;;;;16.52;8.85;;;;;;;-4.29;100.00;101452.97;5048685;28;20175;-59
2023/02/08 02:02:58;;;;;;;20.67;9.82;;;;;;;-4.87;94.21;101437.16;5004610;28;20403;-58
2023/02/08 02:05:25;;;;;;;20.08;9.38;;;;;;;-4.86;93.13;101445.88;5038345;28;20021;-59
2023/02/08 02:07:51;;;;;;;19.15;9.73;;;;;;;-5.07;93.63;101443.53;5049779;28;20029;-59
2023/02/08 02:10:21;;;;;;;18.58;9.23;;;;;;;-5.28;93.93;101442.16;5040141;28;20060;-59
2023/02/08 02:12:47;;;;;;;16.70;9.15;;;;;;;-5.31;95.60;101442.31;5042041;28;20037;-59
2023/02/08 02:15:12;;;;;;;18.45;10.13;;;;;;;-5.39;97.16;101444.50;5077917;28;20040;-59
2023/02/08 02:17:38;;;;;;;18.05;9.18;;;;;;;-5.48;96.44;101446.72;5045502;28;20845;-59
2023/02/08 02:20:43;;;;;;;20.15;9.63;;;;;;;-5.53;95.04;101442.66;5031108;28;20546;-59
2023/02/08 02:23:14;;;;;;;19.25;8.88;;;;;;;-5.74;96.58;101435.09;5056376;28;20041;-59
2023/02/08 02:25:48;;;;;;;20.15;9.75;;;;;;;-5.79;97.71;101433.63;5034073;28;20041;-59
2023/02/08 02:28:26;;;;;;;16.77;9.15;;;;;;;-5.79;97.14;101436.25;5049885;28;20037;-59
2023/02/08 02:31:14;;;;;;;17.17;9.80;;;;;;;-5.86;97.28;101439.19;5025927;28;20030;-59
2023/02/08 02:33:47;;;;;;;16.08;8.85;;;;;;;-5.52;100.00;101434.72;5046786;28;20048;-59
2023/02/08 02:36:45;;;;;;;19.88;9.20;;;;;;;-5.33;100.00;101429.34;5016603;28;20462;-59
2023/02/08 02:39:22;;;;;;;17.10;9.05;;;;;;;-5.70;98.45;101430.53;5044974;28;20037;-59
2023/02/08 02:45:02;;;;;;;18.50;9.30;;;;;;;-4.63;100.00;101423.59;5054480;28;20514;-59
2023/02/08 02:47:41;;;;;;;20.02;9.88;;;;;;;-4.37;100.00;101427.25;5027448;28;20037;-59
2023/02/08 02:50:07;;;;;;;27.58;12.13;;;;;;;-4.71;95.30;101426.66;5044731;28;20136;-59
2023/02/08 02:52:42;;;;;;;18.27;10.52;;;;;;;-4.94;95.02;101424.53;5040304;28;20113;-59
2023/02/08 02:55:10;;;;;;;25.55;11.13;;;;;;;-4.95;96.14;101418.44;5040968;28;20040;-59
2023/02/08 02:57:36;;;;;;;18.27;10.05;;;;;;;-5.12;94.91;101426.41;5040572;28;20710;-59
2023/02/08 03:00:06;;;;;;;17.38;10.15;;;;;;;-5.52;94.28;101423.44;5034984;28;20040;-59
2023/02/08 03:02:32;;;;;;;15.55;9.57;;;;;;;-5.16;99.68;101423.16;5040837;28;20025;-59
2023/02/08 03:04:57;;;;;;;19.98;10.85;;;;;;;-5.29;96.68;101424.75;5037895;28;20542;-59
2023/02/08 03:07:36;;;;;;;22.73;10.68;;;;;;;-5.37;96.18;101421.75;5040135;28;20413;-58
2023/02/08 03:10:23;;;;;;;20.45;10.07;;;;;;;-5.55;95.69;101427.06;5071738;28;20420;-59
2023/02/08 03:12:55;;;;;;;21.52;10.40;;;;;;;-5.66;96.67;101424.22;5036264;28;20033;-59
2023/02/08 03:16:01;;;;;;;18.92;10.05;;;;;;;-5.82;97.27;101433.81;5042160;28;20044;-59
2023/02/08 03:18:32;;;;;;;18.63;9.20;;;;;;;-6.07;97.87;101435.97;4994458;28;20028;-59
2023/02/08 03:21:04;;;;;;;16.42;9.18;;;;;;;-6.12;97.96;101434.53;5046647;28;20555;-59
2023/02/08 03:23:30;;;;;;;15.45;9.48;;;;;;;-5.50;100.00;101432.03;5050745;28;20028;-59
2023/02/08 03:26:01;;;;;;;19.83;11.00;;;;;;;-5.77;100.00;101423.94;5069790;28;20059;-59
2023/02/08 03:29:00;;;;;;;19.00;9.60;;;;;;;-5.77;100.00;101434.41;5029385;28;20032;-59
2023/02/08 03:31:31;;;;;;;20.02;10.32;;;;;;;-5.20;100.00;101424.25;5038736;28;20440;-59
2023/02/08 03:33:57;;;;;;;;;;;;;;;-5.59;100.00;101417.72;5043234;28;20502;-59
2023/02/08 03:36:31;;;;;;;17.75;10.30;;;;;;;-5.76;100.00;101425.66;5044575;28;19963;-59
2023/02/08 03:38:58;;;;;;;21.27;10.52;;;;;;;-5.77;100.00;101416.09;5022865;28;20044;-59
2023/02/08 03:41:27;;;;;;;18.23;10.52;;;;;;;-5.70;100.00;101422.69;5061316;28;20053;-59
2023/02/08 03:43:59;;;;;;;16.60;9.30;;;;;;;-5.63;100.00;101430.09;5042309;28;20083;-59
2023/02/08 03:46:37;;;;;;;24.40;10.63;;;;;;;-5.89;99.42;101431.53;5028556;28;20017;-59
2023/02/08 03:49:06;;;;;;;17.00;10.07;;;;;;;-5.89;100.00;101423.69;5047490;28;20391;-59
2023/02/08 03:51:31;;;;;;;20.55;11.25;;;;;;;-5.71;100.00;101431.47;5027813;28;20029;-59
2023/02/08 03:53:57;;;;;;;23.52;11.55;;;;;;;-5.75;99.90;101430.78;5065901;28;20121;-59
2023/02/08 03:56:42;;;;;;;20.77;11.82;;;;;;;-5.52;97.71;101434.72;5043674;28;20576;-59
2023/02/08 03:59:11;;;;;;;22.95;11.52;;;;;;;-5.58;96.47;101424.63;5010502;28;20025;-59
2023/02/08 04:01:42;;;;;;;22.45;10.68;;;;;;;-5.52;96.50;101433.88;5024944;28;20032;-59
2023/02/08 04:04:08;;;;;;;24.40;12.30;;;;;;;-5.48;98.48;101430.19;5027352;28;20411;-59
2023/02/08 04:06:34;;;;;;;19.05;10.38;;;;;;;-5.61;97.73;101440.47;5040528;28;20021;-59
2023/02/08 04:08:59;;;;;;;22.40;12.18;;;;;;;-5.80;97.74;101438.00;5042021;28;20091;-59
2023/02/08 04:11:25;;;;;;;22.52;10.95;;;;;;;-5.81;98.87;101443.34;5047915;28;20039;-59
2023/02/08 04:13:50;;;;;;;24.02;12.80;;;;;;;-5.80;100.00;101439.78;5042627;28;20041;-59
2023/02/08 04:16:16;;;;;;;27.10;12.93;;;;;;;-5.68;100.00;101444.34;5043079;28;20033;-59
2023/02/08 04:18:41;;;;;;;24.52;13.02;;;;;;;-5.86;99.70;101439.19;5037961;28;20040;-59
2023/02/08 04:21:07;;;;;;;26.67;12.55;;;;;;;-5.72;100.00;101438.44;5044438;28;20768;-59
2023/02/08 04:23:33;;;;;;;18.42;10.90;;;;;;;-5.89;100.00;101441.97;5052000;28;20037;-59
2023/02/08 04:25:58;;;;;;;28.83;11.00;;;;;;;-6.28;100.00;101438.91;5045980;28;20057;-59
2023/02/08 04:28:24;;;;;;;20.95;11.20;;;;;;;-5.71;100.00;101440.13;5008817;28;20324;-59
2023/02/08 04:30:49;;;;;;;20.83;11.70;;;;;;;-5.65;100.00;101438.94;5038465;28;20041;-59
2023/02/08 04:33:15;;;;;;;19.27;11.48;;;;;;;-5.70;100.00;101446.19;5052230;28;20393;-59
2023/02/08 04:35:41;;;;;;;23.77;11.77;;;;;;;-5.79;100.00;101446.69;5043508;28;20329;-59
2023/02/08 04:38:07;;;;;;;20.17;10.93;;;;;;;-5.87;100.00;101440.09;5039420;28;20036;-59
2023/02/08 04:40:32;;;;;;;20.40;10.88;;;;;;;-6.09;99.42;101432.63;5037224;28;20028;-59
2023/02/08 04:42:58;;;;;;;22.20;11.25;;;;;;;-6.15;100.00;101430.31;5045075;28;20036;-59
2023/02/08 04:45:24;;;;;;;21.73;11.20;;;;;;;-5.81;100.00;101425.06;5040068;28;20032;-59
2023/02/08 04:47:49;;;;;;;23.95;11.93;;;;;;;-5.62;100.00;101423.09;5037741;28;20468;-58
2023/02/08 04:50:15;;;;;;;20.58;10.50;;;;;;;-5.70;98.40;101427.91;5034157;28;21300;-59
2023/02/08 04:52:41;;;;;;;27.65;11.77;;;;;;;-5.81;98.53;101430.28;5039996;28;20033;-59
2023/02/08 04:55:06;;;;;;;23.63;11.82;;;;;;;-5.75;100.00;101422.09;5042982;28;20033;-58
2023/02/08 04:57:32;;;;;;;22.17;11.98;;;;;;;-5.87;100.00;101429.66;5042221;28;20139;-59
2023/02/08 04:59:57;;;;;;;23.08;11.48;;;;;;;-5.94;100.00;101412.69;5041863;28;20037;-59
2023/02/08 05:02:23;;;;;;;19.25;10.27;;;;;;;-6.23;100.00;101416.00;5041658;28;20036;-59
2023/02/08 05:04:48;;;;;;;20.00;10.68;;;;;;;-6.11;100.00;101415.38;5039710;28;20028;-59
2023/02/08 05:07:14;;;;;;;24.77;12.43;;;;;;;-5.81;100.00;101412.00;5039161;28;20029;-59
2023/02/08 05:09:42;;;;;;;25.20;10.73;;;;;;;-5.82;100.00;101421.56;5034484;28;20053;-59
2023/02/08 05:12:07;;;;;;;18.98;11.15;;;;;;;-5.83;100.00;101413.84;5043365;28;20029;-59
2023/02/08 05:14:33;;;;;;;27.15;12.23;;;;;;;-5.86;100.00;101420.91;5045645;28;20379;-59
2023/02/08 05:16:58;;;;;;;20.45;10.98;;;;;;;-5.98;100.00;101411.16;5046201;28;20029;-59
2023/02/08 05:19:24;;;;;;;20.85;11.23;;;;;;;-6.14;100.00;101408.53;5040954;28;20024;-58
2023/02/08 05:21:50;;;;;;;21.95;11.25;;;;;;;-6.15;100.00;101412.06;5043005;28;20119;-58
2023/02/08 05:24:15;;;;;;;22.02;11.48;;;;;;;-6.26;100.00;101414.41;5034819;28;20495;-59
2023/02/08 05:26:41;;;;;;;22.77;11.48;;;;;;;-5.67;100.00;101412.06;5040653;28;20040;-61
2023/02/08 05:29:06;;;;;;;22.90;12.57;;;;;;;-5.86;100.00;101402.63;5035445;28;20447;-59
2023/02/08 05:31:32;;;;;;;23.13;11.70;;;;;;;-5.93;100.00;101414.34;5032454;28;20533;-58
2023/02/08 05:33:57;;;;;;;19.20;11.30;;;;;;;-6.00;100.00;101410.41;5042606;28;20041;-58
2023/02/08 05:36:23;;;;;;;21.60;11.40;;;;;;;-5.67;100.00;101412.06;5047875;28;20590;-60
2023/02/08 05:38:48;;;;;;;22.30;11.90;;;;;;;-5.56;100.00;101422.78;5040110;28;20519;-60
2023/02/08 05:41:14;;;;;;;23.63;11.23;;;;;;;-6.01;100.00;101420.94;5042619;28;20029;-60
2023/02/08 05:43:40;;;;;;;22.48;12.65;;;;;;;-5.92;100.00;101418.63;5040548;28;20036;-60
2023/02/08 05:46:06;;;;;;;25.23;11.55;;;;;;;-5.62;100.00;101417.88;5044624;28;20036;-60
2023/02/08 05:48:31;;;;;;;22.50;11.55;;;;;;;-5.92;100.00;101421.22;5043457;28;20048;-60
2023/02/08 05:50:56;;;;;;;25.30;11.68;;;;;;;-6.03;100.00;101428.00;5041116;28;20594;-59
2023/02/08 05:53:22;;;;;;;20.80;11.27;;;;;;;-6.32;100.00;101432.97;5041561;28;20029;-59
2023/02/08 05:55:47;;;;;;;27.00;13.05;;;;;;;-6.57;100.00;101425.56;5048009;28;20514;-59
2023/02/08 05:58:14;;;;;;;23.35;11.95;;;;;;;-6.57;100.00;101430.78;5051623;28;20104;-59
2023/02/08 06:00:39;;;;;;;25.88;11.43;;;;;;;-6.49;100.00;101428.63;5038610;28;20025;-59
2023/02/08 06:03:05;;;;;;;23.92;13.10;;;;;;;-6.60;100.00;101428.34;5045376;28;20048;-59
2023/02/08 06:05:30;;;;;;;24.90;11.70;;;;;;;-6.25;100.00;101428.28;5040015;28;20025;-59
2023/02/08 06:07:55;;;;;;;24.27;11.43;;;;;;;-6.34;100.00;101421.78;5038350;28;20041;-60
2023/02/08 06:10:21;;;;;;;22.25;11.90;;;;;;;-6.28;100.00;101429.28;5069932;28;20055;-59
2023/02/08 06:12:46;;;;;;;20.77;11.15;;;;;;;-6.26;100.00;101431.81;5038033;28;20040;-59
2023/02/08 06:15:12;;;;;;;25.80;13.35;;;;;;;-6.15;100.00;101429.50;5054903;28;20533;-59
2023/02/08 06:17:37;;;;;;;24.60;11.23;;;;;;;-6.26;100.00;101435.28;5044288;28;20048;-59
2023/02/08 06:20:03;;;;;;;22.23;12.23;;;;;;;-6.35;100.00;101431.38;5040298;28;20025;-60
2023/02/08 06:22:29;;;;;;;22.45;11.57;;;;;;;-6.44;100.00;101431.00;5043832;28;20033;-60
2023/02/08 06:24:54;;;;;;;23.95;12.23;;;;;;;-6.42;100.00;101432.59;5045477;28;20025;-59
2023/02/08 06:27:20;;;;;;;21.98;11.85;;;;;;;-6.44;100.00;101429.25;5042500;28;20119;-59
2023/02/08 06:29:45;;;;;;;27.98;13.82;;;;;;;-5.90;100.00;101432.44;5040354;28;20048;-60
2023/02/08 06:32:10;;;;;;;27.33;13.25;;;;;;;-5.89;100.00;101439.38;5043242;28;20028;-59
2023/02/08 06:34:36;;;;;;;26.10;13.32;;;;;;;-5.29;100.00;101435.22;5041945;28;20032;-60
2023/02/08 06:37:04;;;;;;;28.85;14.27;;;;;;;-5.31;100.00;101434.50;5044104;28;20052;-60
2023/02/08 06:39:29;;;;;;;29.60;14.00;;;;;;;-5.22;100.00;101442.66;5040305;28;20044;-59
2023/02/08 06:41:54;;;;;;;30.38;12.05;;;;;;;-5.59;100.00;101429.94;5043629;28;20029;-59
2023/02/08 06:44:20;;;;;;;24.70;11.82;;;;;;;-5.96;100.00;101430.22;5026881;28;20040;-59
2023/02/08 06:46:45;;;;;;;25.15;11.35;;;;;;;-5.95;100.00;101437.09;5043294;28;20033;-59
2023/02/08 06:49:11;;;;;;;27.17;12.10;;;;;;;-6.09;100.00;101435.25;5045934;28;20024;-59
2023/02/08 06:51:36;;;;;;;24.77;13.02;;;;;;;-5.58;100.00;101437.69;5048085;28;20096;-59
2023/02/08 06:54:02;;;;;;;24.77;12.55;;;;;;;-5.39;100.00;101441.88;5046159;28;20044;-59
2023/02/08 06:56:27;;;;;;;25.67;13.20;;;;;;;-5.76;100.00;101438.72;5041278;28;20202;-59
2023/02/08 06:58:53;;;;;;;19.92;12.40;;;;;;;-5.57;100.00;101438.53;5043069;28;20032;-60
2023/02/08 07:01:18;;;;;;;21.80;12.75;;;;;;;-5.81;100.00;101441.56;5038535;28;20037;-59
2023/02/08 07:03:45;;;;;;;24.02;12.55;;;;;;;-5.95;100.00;101434.50;5041428;28;20044;-59
2023/02/08 07:06:12;;;;;;;24.10;12.48;;;;;;;-6.16;100.00;101435.66;5043801;28;20098;-59
2023/02/08 07:08:37;;;;;;;21.10;11.93;;;;;;;-6.39;100.00;101434.22;5039030;28;20296;-59
2023/02/08 07:11:12;;;;;;;23.73;11.98;;;;;;;-6.26;100.00;101442.25;5036273;28;20116;-59
2023/02/08 07:13:38;;;;;;;32.03;16.52;;;;;;;-6.02;100.00;101440.97;5044273;28;20106;-59
2023/02/08 07:16:04;;;;;;;27.70;13.80;;;;;;;-6.10;100.00;101440.53;5025494;28;20115;-59
2023/02/08 07:18:30;;;;;;;30.83;12.82;;;;;;;-6.23;100.00;101442.13;5048129;28;20183;-59
2023/02/08 07:20:56;;;;;;;24.95;13.60;;;;;;;-6.30;100.00;101441.56;5047188;28;20535;-59
2023/02/08 07:23:21;;;;;;;28.23;14.48;;;;;;;-6.24;100.00;101445.63;5040350;28;20090;-59
2023/02/08 07:26:16;;;;;;;28.08;14.25;;;;;;;-6.27;100.00;101440.56;5047035;28;20060;-58
2023/02/08 07:28:41;;;;;;;25.38;13.00;;;;;;;-6.19;100.00;101447.09;5019360;28;20037;-59
2023/02/08 07:31:09;;;;;;;29.75;14.07;;;;;;;-6.17;100.00;101445.22;5043433;28;20386;-58
2023/02/08 07:33:34;;;;;;;24.25;12.90;;;;;;;-6.32;100.00;101441.66;5041083;28;20032;-59
2023/02/08 07:36:00;;;;;;;26.30;12.98;;;;;;;-6.10;100.00;101443.97;5043764;28;20033;-59
2023/02/08 07:38:25;;;;;;;24.67;13.20;;;;;;;-4.94;98.83;101443.69;5043821;28;20060;-59
2023/02/08 07:40:51;;;;;;;31.83;12.55;;;;;;;-4.05;93.25;101435.78;5038499;28;20480;-59
2023/02/08 07:43:16;;;;;;;22.15;11.98;;;;;;;-3.70;88.75;101433.56;5043403;28;20037;-59
2023/02/08 07:45:41;;;;;;;23.27;11.40;;;;;;;-4.00;88.11;101430.25;5034975;28;20403;-59
2023/02/08 07:48:07;;;;;;;23.10;13.57;;;;;;;-4.29;89.71;101426.78;5037838;28;20056;-58
2023/02/08 07:50:32;;;;;;;19.13;11.10;;;;;;;-3.99;89.73;101424.09;5045199;28;20288;-59
2023/02/08 07:52:58;;;;;;;21.77;12.00;;;;;;;-2.41;86.26;101427.78;5041207;28;20072;-59
2023/02/08 07:55:23;;;;;;;20.95;11.50;;;;;;;-1.64;79.27;101432.13;5039150;28;20036;-59
2023/02/08 07:57:49;;;;;;;21.77;10.98;;;;;;;-1.18;75.77;101423.50;5046964;28;20042;-59
2023/02/08 08:00:16;;;;;;;22.50;11.75;;;;;;;-1.15;74.72;101421.50;5051722;28;20721;-59
2023/02/08 08:02:41;;;;;;;25.08;11.35;;;;;;;-1.02;72.70;101423.22;5065104;28;20115;-59
2023/02/08 08:05:07;;;;;;;20.35;10.23;;;;;;;-2.12;76.71;101422.31;5032608;28;20111;-59
2023/02/08 08:07:32;;;;;;;18.30;10.25;;;;;;;-2.29;81.31;101422.63;5051638;28;20435;-59
2023/02/08 08:09:58;;;;;;;21.92;11.52;;;;;;;-1.77;78.50;101427.72;5039527;28;20053;-59
2023/02/08 08:12:23;;;;;;;16.73;10.95;;;;;;;-1.06;76.19;101422.59;5039093;28;20487;-59
2023/02/08 08:14:49;;;;;;;18.60;10.68;;;;;;;-0.73;73.54;101416.59;5039030;28;20045;-59
2023/02/08 08:17:15;;;;;;;19.27;9.90;;;;;;;-0.54;71.91;101417.88;5046953;28;20032;-59
2023/02/08 08:19:41;;;;;;;18.38;9.50;;;;;;;-0.92;76.87;101418.97;5039864;28;20055;-59
2023/02/08 08:22:06;;;;;;;17.17;10.95;;;;;;;-0.72;75.01;101414.84;5034583;28;20091;-59
2023/02/08 08:24:34;;;;;;;16.40;10.45;;;;;;;-0.15;71.71;101415.72;5037137;28;20030;-59
2023/02/08 08:27:03;;;;;;;16.30;10.05;;;;;;;0.61;69.25;101409.66;5045085;28;20478;-59
2023/02/08 08:29:30;;;;;;;20.17;10.10;;;;;;;0.41;69.38;101411.25;5037766;28;20033;-59
2023/02/08 08:31:56;;;;;;;18.00;10.80;;;;;;;0.93;67.64;101400.91;5041062;28;20496;-59
2023/02/08 08:34:28;;;;;;;21.52;12.68;;;;;;;0.52;66.74;101413.03;5042024;28;20107;-59
2023/02/08 08:36:56;;;;;;;22.42;12.65;;;;;;;0.77;67.85;101411.03;5041223;28;20075;-59
2023/02/08 08:39:22;;;;;;;19.45;11.32;;;;;;;0.73;68.42;101407.00;5035665;28;20017;-59
2023/02/08 08:41:48;;;;;;;23.02;12.02;;;;;;;1.61;65.63;101416.41;5041125;28;20032;-59
2023/02/08 08:44:13;;;;;;;26.55;12.50;;;;;;;1.31;65.77;101411.91;5045625;28;20026;-59
2023/02/08 08:46:39;;;;;;;22.38;12.75;;;;;;;1.08;66.92;101414.66;5041273;28;20387;-59
2023/02/08 08:49:04;;;;;;;21.67;13.13;;;;;;;0.87;67.80;101414.59;5037162;28;20491;-59
2023/02/08 08:51:34;;;;;;;21.25;12.52;;;;;;;1.04;67.55;101413.22;5045124;28;20035;-59
2023/02/08 08:54:00;;;;;;;24.70;12.93;;;;;;;1.50;66.70;101412.03;5032071;28;20455;-59
2023/02/08 08:56:25;;;;;;;20.98;12.90;;;;;;;1.59;66.19;101413.88;5050103;28;20043;-59
2023/02/08 08:58:51;;;;;;;19.58;11.98;;;;;;;1.59;64.76;101415.69;5034223;28;20025;-59
2023/02/08 09:01:16;;;;;;;19.52;12.05;;;;;;;1.32;66.02;101417.03;5045692;28;20449;-59
2023/02/08 09:03:45;;;;;;;21.35;10.85;;;;;;;1.99;63.82;101410.44;5046556;28;20031;-60
2023/02/08 09:06:10;;;;;;;19.23;11.30;;;;;;;2.77;61.46;101407.97;5039083;28;20578;-60
2023/02/08 09:08:36;;;;;;;19.10;11.45;;;;;;;2.41;60.58;101409.47;5045641;28;20036;-61
2023/02/08 09:11:07;;;;;;;17.15;11.15;;;;;;;2.20;63.34;101413.03;5042289;28;20079;-60
2023/02/08 09:13:33;;;;;;;20.85;10.85;;;;;;;2.43;61.23;101418.94;5046438;28;20102;-58
2023/02/08 09:16:02;;;;;;;16.85;11.57;;;;;;;2.33;61.44;101416.28;5033808;28;20022;-59
2023/02/08 09:18:28;;;;;;;20.70;11.80;;;;;;;2.09;62.64;101408.66;5044252;28;20033;-59
2023/02/08 09:20:53;;;;;;;21.35;12.05;;;;;;;2.26;61.01;101406.38;5041874;28;20083;-59
2023/02/08 09:23:19;;;;;;;22.17;12.98;;;;;;;2.77;59.83;101406.19;5038199;28;20041;-59
2023/02/08 09:25:44;;;;;;;22.40;12.65;;;;;;;3.03;59.18;101403.81;5038041;28;20033;-58
2023/02/08 09:28:10;;;;;;;22.02;12.25;;;;;;;3.14;58.82;101407.28;5038080;28;20633;-59
2023/02/08 09:30:35;;;;;;;22.90;13.65;;;;;;;3.23;57.19;101407.28;5042813;28;20028;-60
2023/02/08 09:33:01;;;;;;;22.55;13.55;;;;;;;2.99;58.25;101399.75;5043150;28;20021;-60
2023/02/08 09:35:26;;;;;;;20.33;13.35;;;;;;;3.12;58.81;101394.19;5043029;28;20025;-60
2023/02/08 09:37:54;;;;;;;21.60;12.80;;;;;;;3.94;56.60;101405.13;5040184;28;20028;-59
2023/02/08 09:40:28;;;;;;;24.98;12.88;;;;;;;3.57;55.88;101409.47;5040850;28;20030;-61
2023/02/08 09:43:00;;;;;;;25.40;12.23;;;;;;;3.64;57.08;101409.69;5028010;28;20017;-61
2023/02/08 09:45:36;;;;;;;18.35;11.63;;;;;;;3.89;56.59;101414.41;5036827;28;20431;-58
2023/02/08 09:48:23;;;;;;;21.75;11.68;;;;;;;3.85;56.58;101407.69;5043159;28;20033;-60
2023/02/08 09:51:20;;;;;;;19.50;11.15;;;;;;;4.17;55.94;101402.94;5023966;28;20100;-61
2023/02/08 09:53:49;;;;;;;21.65;11.38;;;;;;;3.87;55.54;101396.94;5034939;28;20353;-60
2023/02/08 09:56:17;;;;;;;18.55;11.20;;;;;;;3.96;56.02;101397.88;5026476;28;20033;-60
2023/02/08 09:58:51;;;;;;;22.33;10.93;;;;;;;3.74;54.96;101401.72;5038789;28;20104;-60
2023/02/08 10:01:30;;;;;;;20.30;10.65;;;;;;;3.82;55.90;101402.69;5044886;28;20472;-59
2023/02/08 10:04:00;;;;;;;22.17;11.50;;;;;;;4.69;54.42;101400.53;5025090;28;20029;-60
2023/02/08 10:06:25;;;;;;;;;;;;;;;4.78;54.51;101404.94;5071463;28;20178;-60
2023/02/08 10:08:51;;;;;;;21.60;10.77;;;;;;;4.67;54.42;101405.19;5045883;28;19919;-61
2023/02/08 10:11:38;;;;;;;24.73;10.55;;;;;;;4.16;55.32;101398.63;5022799;28;20064;-60
2023/02/08 10:14:10;;;;;;;19.05;10.65;;;;;;;4.90;53.40;101398.41;5039730;28;20037;-60
2023/02/08 10:16:42;;;;;;;26.75;11.30;;;;;;;4.21;55.41;101399.00;5036885;28;20509;-60
2023/02/08 10:19:50;;;;;;;24.33;10.80;;;;;;;4.43;55.31;101384.50;5042773;28;20491;-59
2023/02/08 10:22:38;;;;;;;22.98;11.23;;;;;;;5.27;54.72;101392.09;5005046;28;20091;-60
2023/02/08 10:25:41;;;;;;;22.92;11.45;;;;;;;5.16;54.62;101390.47;5039436;28;20036;-59
2023/02/08 10:28:29;;;;;;;25.70;10.80;;;;;;;4.93;54.26;101381.34;5035563;28;20025;-59
2023/02/08 10:31:07;;;;;;;25.23;11.35;;;;;;;5.13;53.76;101382.00;5038487;28;20021;-60
2023/02/08 10:33:55;;;;;;;21.13;11.40;;;;;;;5.46;53.25;101387.53;5045022;28;20364;-60
2023/02/08 10:36:23;;;;;;;15.98;10.27;;;;;;;5.17;53.57;101380.72;5049106;28;20090;-59
2023/02/08 10:38:50;;;;;;;22.10;11.77;;;;;;;5.36;52.65;101385.81;5045849;28;20079;-60
2023/02/08 10:41:28;;;;;;;20.60;10.55;;;;;;;5.74;52.25;101383.75;5045931;28;20021;-60
2023/02/08 10:44:06;;;;;;;23.05;11.30;;;;;;;6.30;52.37;101375.34;5032938;28;20059;-60
2023/02/08 10:46:36;;;;;;;20.95;11.02;;;;;;;5.48;51.01;101377.59;5037491;28;20045;-60
2023/02/08 10:49:07;;;;;;;18.65;8.88;;;;;;;5.57;50.44;101380.16;5024015;28;20025;-60
2023/02/08 10:51:33;;;;;;;14.55;6.95;;;;;;;4.42;45.75;101372.19;5033776;28;20463;-60
2023/02/08 10:53:58;;;;;;;19.58;9.75;;;;;;;4.75;49.65;101379.50;5038464;28;20029;-60
2023/02/08 10:56:29;;;;;;;17.35;10.38;;;;;;;5.01;53.51;101377.91;5048399;28;20013;-59
2023/02/08 10:58:58;;;;;;;17.48;10.02;;;;;;;4.76;53.22;101375.03;5039433;28;20021;-59
2023/02/08 11:01:24;;;;;;;16.15;8.88;;;;;;;5.34;48.85;101358.56;5029471;28;20033;-61
2023/02/08 11:04:03;;;;;;;20.30;11.32;;;;;;;5.35;52.67;101370.84;5041223;28;20033;-60
2023/02/08 11:06:29;;;;;;;13.02;6.93;;;;;;;5.16;44.35;101350.59;5046585;28;20036;-59
2023/02/08 11:08:55;;;;;;;14.07;8.60;;;;;;;5.64;47.23;101353.72;5046059;28;20114;-60
2023/02/08 11:11:20;;;;;;;17.30;9.60;;;;;;;6.01;51.51;101357.94;5065782;28;20067;-60
2023/02/08 11:13:50;;;;;;;17.50;9.65;;;;;;;5.76;50.61;101363.09;5040741;28;20044;-59
2023/02/08 11:16:22;;;;;;;15.30;8.37;;;;;;;5.31;47.89;101353.53;5044770;28;20025;-60
2023/02/08 11:18:50;;;;;;;19.98;10.23;;;;;;;5.22;48.86;101351.84;5038636;28;20109;-59